sensor_id;sensor_type;location;lat;lon;timestamp;pressure;altitude;pressure_sealevel;temperature;humidity
59043;BME280;44826;51.596;5.624;2023-02-28T00:00:13;103027.50;;;-1.69;73.60
59043;BME280;44826;51.596;5.624;2023-02-28T00:02:39;103019.78;;;-1.70;73.54
59043;BME280;44826;51.596;5.624;2023-02-28T00:05:07;103024.81;;;-1.72;73.62
59043;BME280;44826;51.596;5.624;2023-02-28T00:07:33;103031.56;;;-1.72;73.01
59043;BME280;44826;51.596;5.624;2023-02-28T00:09:59;103034.03;;;-1.74;73.27
59043;BME280;44826;51.596;5.624;2023-02-28T00:12:25;103030.59;;;-1.74;72.83
59043;BME280;44826;51.596;5.624;2023-02-28T00:14:50;103024.50;;;-1.76;73.06
59043;BME280;44826;51.596;5.624;2023-02-28T00:17:16;103022.72;;;-1.77;73.72
59043;BME280;44826;51.596;5.624;2023-02-28T00:19:43;103020.97;;;-1.78;73.44
59043;BME280;44826;51.596;5.624;2023-02-28T00:22:08;103019.25;;;-1.79;73.86
59043;BME280;44826;51.596;5.624;2023-02-28T00:24:34;103013.16;;;-1.81;73.32
59043;BME280;44826;51.596;5.624;2023-02-28T00:26:59;103015.00;;;-1.79;73.21
59043;BME280;44826;51.596;5.624;2023-02-28T00:29:24;103017.47;;;-1.80;73.83
59043;BME280;44826;51.596;5.624;2023-02-28T00:31:50;103020.69;;;-1.83;73.26
59043;BME280;44826;51.596;5.624;2023-02-28T00:34:15;103020.50;;;-1.86;73.51
59043;BME280;44826;51.596;5.624;2023-02-28T00:36:40;103020.94;;;-1.93;74.04
59043;BME280;44826;51.596;5.624;2023-02-28T00:39:10;103021.44;;;-1.99;73.83
59043;BME280;44826;51.596;5.624;2023-02-28T00:41:35;103018.78;;;-2.01;73.76
59043;BME280;44826;51.596;5.624;2023-02-28T00:44:01;103016.16;;;-2.02;73.98
59043;BME280;44826;51.596;5.624;2023-02-28T00:46:26;103021.06;;;-2.05;73.04
59043;BME280;44826;51.596;5.624;2023-02-28T00:48:51;103017.53;;;-2.07;74.08
59043;BME280;44826;51.596;5.624;2023-02-28T00:51:17;103014.91;;;-2.09;73.43
59043;BME280;44826;51.596;5.624;2023-02-28T00:53:42;103015.56;;;-2.11;73.66
59043;BME280;44826;51.596;5.624;2023-02-28T00:56:07;103007.06;;;-2.12;74.41
59043;BME280;44826;51.596;5.624;2023-02-28T00:58:33;103014.72;;;-2.12;74.10
59043;BME280;44826;51.596;5.624;2023-02-28T01:00:58;103023.94;;;-2.14;73.81
59043;BME280;44826;51.596;5.624;2023-02-28T01:03:23;103021.38;;;-2.14;74.18
59043;BME280;44826;51.596;5.624;2023-02-28T01:05:49;103028.16;;;-2.15;74.50
59043;BME280;44826;51.596;5.624;2023-02-28T01:08:14;103033.34;;;-2.13;75.21
59043;BME280;44826;51.596;5.624;2023-02-28T01:10:40;103034.91;;;-2.15;74.61
59043;BME280;44826;51.596;5.624;2023-02-28T01:13:06;103032.28;;;-2.17;74.44
59043;BME280;44826;51.596;5.624;2023-02-28T01:15:32;103040.00;;;-2.15;73.94
59043;BME280;44826;51.596;5.624;2023-02-28T01:17:58;103037.19;;;-2.20;74.46
59043;BME280;44826;51.596;5.624;2023-02-28T01:20:23;103038.84;;;-2.20;75.24
59043;BME280;44826;51.596;5.624;2023-02-28T01:22:49;103036.19;;;-2.22;74.56
59043;BME280;44826;51.596;5.624;2023-02-28T01:25:14;103040.50;;;-2.21;74.70
59043;BME280;44826;51.596;5.624;2023-02-28T01:27:39;103041.28;;;-2.22;75.45
59043;BME280;44826;51.596;5.624;2023-02-28T01:30:06;103030.13;;;-2.24;75.14
59043;BME280;44826;51.596;5.624;2023-02-28T01:32:32;103043.75;;;-2.23;74.45
59043;BME280;44826;51.596;5.624;2023-02-28T01:34:57;103042.97;;;-2.22;74.45
59043;BME280;44826;51.596;5.624;2023-02-28T01:37:22;103041.38;;;-2.20;74.61
59043;BME280;44826;51.596;5.624;2023-02-28T01:39:48;103032.94;;;-2.19;75.47
59043;BME280;44826;51.596;5.624;2023-02-28T01:42:13;103032.16;;;-2.18;75.74
59043;BME280;44826;51.596;5.624;2023-02-28T01:47:34;103028.75;;;-2.19;75.76
59043;BME280;44826;51.596;5.624;2023-02-28T01:50:04;103025.13;;;-2.22;74.98
59043;BME280;44826;51.596;5.624;2023-02-28T01:52:31;103018.06;;;-2.26;75.63
59043;BME280;44826;51.596;5.624;2023-02-28T01:54:59;103005.13;;;-2.30;75.71
59043;BME280;44826;51.596;5.624;2023-02-28T01:57:30;103014.44;;;-2.30;75.20
59043;BME280;44826;51.596;5.624;2023-02-28T02:00:05;103010.31;;;-2.28;75.24
59043;BME280;44826;51.596;5.624;2023-02-28T02:02:32;103009.31;;;-2.30;75.34
59043;BME280;44826;51.596;5.624;2023-02-28T02:05:04;103020.41;;;-2.30;75.56
59043;BME280;44826;51.596;5.624;2023-02-28T02:07:33;103021.41;;;-2.27;74.80
59043;BME280;44826;51.596;5.624;2023-02-28T02:10:21;103013.94;;;-2.24;75.01
59043;BME280;44826;51.596;5.624;2023-02-28T02:12:56;103013.06;;;-2.25;75.22
59043;BME280;44826;51.596;5.624;2023-02-28T02:15:41;103005.53;;;-2.23;75.56
59043;BME280;44826;51.596;5.624;2023-02-28T02:18:24;103004.81;;;-2.21;74.90
59043;BME280;44826;51.596;5.624;2023-02-28T02:31:41;103000.78;;;-2.17;75.65
59043;BME280;44826;51.596;5.624;2023-02-28T02:34:27;103003.44;;;-2.16;75.67
59043;BME280;44826;51.596;5.624;2023-02-28T02:37:05;103003.53;;;-2.14;75.93
59043;BME280;44826;51.596;5.624;2023-02-28T02:42:18;103002.16;;;-2.09;75.66
59043;BME280;44826;51.596;5.624;2023-02-28T02:44:49;103005.75;;;-2.05;76.26
59043;BME280;44826;51.596;5.624;2023-02-28T02:47:20;103005.16;;;-2.01;76.13
59043;BME280;44826;51.596;5.624;2023-02-28T02:49:50;103004.38;;;-2.00;76.92
59043;BME280;44826;51.596;5.624;2023-02-28T02:52:18;102995.25;;;-1.96;76.98
59043;BME280;44826;51.596;5.624;2023-02-28T02:54:47;103002.19;;;-1.94;77.81
59043;BME280;44826;51.596;5.624;2023-02-28T02:57:21;102998.97;;;-1.91;77.25
59043;BME280;44826;51.596;5.624;2023-02-28T02:59:48;102992.97;;;-1.92;77.41
59043;BME280;44826;51.596;5.624;2023-02-28T03:02:17;102995.63;;;-1.90;77.44
59043;BME280;44826;51.596;5.624;2023-02-28T03:04:51;102993.84;;;-1.91;77.60
59043;BME280;44826;51.596;5.624;2023-02-28T03:07:17;103004.13;;;-1.90;76.84
59043;BME280;44826;51.596;5.624;2023-02-28T03:09:50;103004.25;;;-1.88;77.34
59043;BME280;44826;51.596;5.624;2023-02-28T03:12:16;103002.66;;;-1.86;77.26
59043;BME280;44826;51.596;5.624;2023-02-28T03:25:29;102994.19;;;-1.72;77.74
59043;BME280;44826;51.596;5.624;2023-02-28T03:28:04;102991.78;;;-1.69;77.35
59043;BME280;44826;51.596;5.624;2023-02-28T03:30:42;102991.91;;;-1.67;78.12
59043;BME280;44826;51.596;5.624;2023-02-28T03:33:36;102997.88;;;-1.66;77.71
59043;BME280;44826;51.596;5.624;2023-02-28T03:36:09;102997.06;;;-1.65;77.00
59043;BME280;44826;51.596;5.624;2023-02-28T03:38:42;102986.88;;;-1.65;77.83
59043;BME280;44826;51.596;5.624;2023-02-28T03:41:16;102997.19;;;-1.64;76.78
59043;BME280;44826;51.596;5.624;2023-02-28T03:43:46;103004.06;;;-1.63;77.62
59043;BME280;44826;51.596;5.624;2023-02-28T03:46:16;103004.22;;;-1.60;77.45
59043;BME280;44826;51.596;5.624;2023-02-28T03:48:51;103000.19;;;-1.56;77.13
59043;BME280;44826;51.596;5.624;2023-02-28T03:51:21;103008.00;;;-1.53;77.56
59043;BME280;44826;51.596;5.624;2023-02-28T03:53:53;103004.84;;;-1.49;77.42
59043;BME280;44826;51.596;5.624;2023-02-28T03:56:30;102996.59;;;-1.45;77.79
59043;BME280;44826;51.596;5.624;2023-02-28T04:01:37;102996.31;;;-1.34;76.34
59043;BME280;44826;51.596;5.624;2023-02-28T04:04:06;102987.19;;;-1.31;76.91
59043;BME280;44826;51.596;5.624;2023-02-28T04:06:33;102992.56;;;-1.26;77.34
59043;BME280;44826;51.596;5.624;2023-02-28T04:08:58;102985.88;;;-1.24;77.25
59043;BME280;44826;51.596;5.624;2023-02-28T04:11:33;102989.41;;;-1.22;77.37
59043;BME280;44826;51.596;5.624;2023-02-28T04:14:00;102989.56;;;-1.19;76.78
59043;BME280;44826;51.596;5.624;2023-02-28T04:16:25;102992.22;;;-1.17;76.61
59043;BME280;44826;51.596;5.624;2023-02-28T04:18:50;102989.84;;;-1.14;77.36
59043;BME280;44826;51.596;5.624;2023-02-28T04:21:16;102994.22;;;-1.12;76.96
59043;BME280;44826;51.596;5.624;2023-02-28T04:23:45;103002.06;;;-1.09;76.72
59043;BME280;44826;51.596;5.624;2023-02-28T04:26:10;102994.59;;;-1.05;77.68
59043;BME280;44826;51.596;5.624;2023-02-28T04:28:37;102998.13;;;-1.03;78.05
59043;BME280;44826;51.596;5.624;2023-02-28T04:31:03;103003.38;;;-1.00;77.88
59043;BME280;44826;51.596;5.624;2023-02-28T04:33:31;103000.13;;;-0.98;77.89
59043;BME280;44826;51.596;5.624;2023-02-28T04:36:01;102999.41;;;-0.95;77.71
59043;BME280;44826;51.596;5.624;2023-02-28T04:38:28;103006.28;;;-0.94;77.57
59043;BME280;44826;51.596;5.624;2023-02-28T04:40:57;102999.59;;;-0.92;77.95
59043;BME280;44826;51.596;5.624;2023-02-28T04:43:22;103004.00;;;-0.89;78.44
59043;BME280;44826;51.596;5.624;2023-02-28T04:45:47;103001.53;;;-0.88;77.61
59043;BME280;44826;51.596;5.624;2023-02-28T04:48:12;103002.50;;;-0.86;76.97
59043;BME280;44826;51.596;5.624;2023-02-28T04:50:38;103006.81;;;-0.85;78.01
59043;BME280;44826;51.596;5.624;2023-02-28T04:53:03;103006.81;;;-0.85;77.86
59043;BME280;44826;51.596;5.624;2023-02-28T04:55:28;103002.78;;;-0.81;77.37
59043;BME280;44826;51.596;5.624;2023-02-28T04:57:53;103001.97;;;-0.80;76.67
59043;BME280;44826;51.596;5.624;2023-02-28T05:00:19;103003.63;;;-0.81;77.24
59043;BME280;44826;51.596;5.624;2023-02-28T05:02:44;103005.41;;;-0.80;76.92
59043;BME280;44826;51.596;5.624;2023-02-28T05:05:09;103007.16;;;-0.79;76.50
59043;BME280;44826;51.596;5.624;2023-02-28T05:07:35;103004.72;;;-0.77;76.17
59043;BME280;44826;51.596;5.624;2023-02-28T05:10:00;103005.56;;;-0.77;76.12
59043;BME280;44826;51.596;5.624;2023-02-28T05:12:25;103008.19;;;-0.75;75.74
59043;BME280;44826;51.596;5.624;2023-02-28T05:14:50;103017.56;;;-0.75;76.42
59043;BME280;44826;51.596;5.624;2023-02-28T05:17:16;103019.22;;;-0.76;76.55
59043;BME280;44826;51.596;5.624;2023-02-28T05:19:41;103017.56;;;-0.75;76.13
59043;BME280;44826;51.596;5.624;2023-02-28T05:22:13;103020.97;;;-0.75;76.28
59043;BME280;44826;51.596;5.624;2023-02-28T05:24:39;103012.44;;;-0.75;76.28
59043;BME280;44826;51.596;5.624;2023-02-28T05:27:04;103019.16;;;-0.78;75.98
59043;BME280;44826;51.596;5.624;2023-02-28T05:29:30;103013.16;;;-0.78;76.23
59043;BME280;44826;51.596;5.624;2023-02-28T05:31:55;103019.16;;;-0.78;75.72
59043;BME280;44826;51.596;5.624;2023-02-28T05:34:20;103021.69;;;-0.78;76.34
59043;BME280;44826;51.596;5.624;2023-02-28T05:36:45;103021.69;;;-0.78;76.01
59043;BME280;44826;51.596;5.624;2023-02-28T05:39:11;103013.16;;;-0.78;76.03
59043;BME280;44826;51.596;5.624;2023-02-28T05:41:39;103024.25;;;-0.78;76.08
59043;BME280;44826;51.596;5.624;2023-02-28T05:44:04;103019.16;;;-0.78;76.56
59043;BME280;44826;51.596;5.624;2023-02-28T05:46:30;103032.81;;;-0.77;76.46
59043;BME280;44826;51.596;5.624;2023-02-28T05:48:55;103032.91;;;-0.75;75.88
59043;BME280;44826;51.596;5.624;2023-02-28T05:51:22;103036.25;;;-0.77;76.50
59043;BME280;44826;51.596;5.624;2023-02-28T05:53:48;103028.56;;;-0.77;76.45
59043;BME280;44826;51.596;5.624;2023-02-28T05:56:14;103031.22;;;-0.75;75.65
59043;BME280;44826;51.596;5.624;2023-02-28T05:58:39;103028.56;;;-0.77;75.66
59043;BME280;44826;51.596;5.624;2023-02-28T06:01:31;103029.38;;;-0.78;76.62
59043;BME280;44826;51.596;5.624;2023-02-28T06:03:57;103027.84;;;-0.74;75.33
59043;BME280;44826;51.596;5.624;2023-02-28T06:06:24;103031.13;;;-0.77;76.14
59043;BME280;44826;51.596;5.624;2023-02-28T06:08:49;103030.28;;;-0.77;76.06
59043;BME280;44826;51.596;5.624;2023-02-28T06:11:14;103034.47;;;-0.78;75.55
59043;BME280;44826;51.596;5.624;2023-02-28T06:13:40;103039.59;;;-0.78;75.57
59043;BME280;44826;51.596;5.624;2023-02-28T06:16:06;103045.41;;;-0.80;75.58
59043;BME280;44826;51.596;5.624;2023-02-28T06:18:31;103038.63;;;-0.80;75.42
59043;BME280;44826;51.596;5.624;2023-02-28T06:20:56;103048.06;;;-0.79;75.80
59043;BME280;44826;51.596;5.624;2023-02-28T06:23:22;103041.34;;;-0.77;75.91
59043;BME280;44826;51.596;5.624;2023-02-28T06:25:47;103041.44;;;-0.75;75.21
59043;BME280;44826;51.596;5.624;2023-02-28T06:28:13;103047.44;;;-0.74;75.73
59043;BME280;44826;51.596;5.624;2023-02-28T06:30:38;103053.34;;;-0.75;75.69
59043;BME280;44826;51.596;5.624;2023-02-28T06:33:04;103048.94;;;-0.78;75.22
59043;BME280;44826;51.596;5.624;2023-02-28T06:35:30;103046.47;;;-0.77;75.58
59043;BME280;44826;51.596;5.624;2023-02-28T06:37:55;103051.66;;;-0.75;75.66
59043;BME280;44826;51.596;5.624;2023-02-28T06:40:20;103050.00;;;-0.74;75.58
59043;BME280;44826;51.596;5.624;2023-02-28T06:42:46;103052.63;;;-0.73;74.97
59043;BME280;44826;51.596;5.624;2023-02-28T06:45:11;103050.25;;;-0.70;74.89
59043;BME280;44826;51.596;5.624;2023-02-28T06:47:39;103045.13;;;-0.70;75.64
59043;BME280;44826;51.596;5.624;2023-02-28T06:50:05;103049.47;;;-0.69;75.32
59043;BME280;44826;51.596;5.624;2023-02-28T06:52:30;103062.16;;;-0.70;75.16
59043;BME280;44826;51.596;5.624;2023-02-28T06:54:55;103055.19;;;-0.73;75.08
59043;BME280;44826;51.596;5.624;2023-02-28T06:57:31;103060.22;;;-0.74;75.14
59043;BME280;44826;51.596;5.624;2023-02-28T07:00:00;103066.91;;;-0.77;74.58
59043;BME280;44826;51.596;5.624;2023-02-28T07:02:27;103060.66;;;-0.82;74.84
59043;BME280;44826;51.596;5.624;2023-02-28T07:04:52;103067.34;;;-0.84;74.93
59043;BME280;44826;51.596;5.624;2023-02-28T07:07:17;103070.69;;;-0.85;74.60
59043;BME280;44826;51.596;5.624;2023-02-28T07:09:43;103068.97;;;-0.86;75.04
59043;BME280;44826;51.596;5.624;2023-02-28T07:12:08;103063.03;;;-0.85;74.92
59043;BME280;44826;51.596;5.624;2023-02-28T07:14:33;103063.91;;;-0.84;75.10
59043;BME280;44826;51.596;5.624;2023-02-28T07:17:01;103070.09;;;-0.81;75.38
59043;BME280;44826;51.596;5.624;2023-02-28T07:19:26;103071.16;;;-0.77;74.82
59043;BME280;44826;51.596;5.624;2023-02-28T07:21:51;103073.97;;;-0.72;75.27
59043;BME280;44826;51.596;5.624;2023-02-28T07:24:17;103074.31;;;-0.66;75.18
59043;BME280;44826;51.596;5.624;2023-02-28T07:26:43;103078.19;;;-0.58;74.26
59043;BME280;44826;51.596;5.624;2023-02-28T07:29:08;103082.03;;;-0.50;74.38
59043;BME280;44826;51.596;5.624;2023-02-28T07:31:33;103085.13;;;-0.40;73.60
59043;BME280;44826;51.596;5.624;2023-02-28T07:33:59;103086.53;;;-0.31;73.87
59043;BME280;44826;51.596;5.624;2023-02-28T07:36:24;103083.66;;;-0.20;73.38
59043;BME280;44826;51.596;5.624;2023-02-28T07:38:49;103088.53;;;-0.10;72.90
59043;BME280;44826;51.596;5.624;2023-02-28T07:41:20;103087.41;;;0.02;72.40
59043;BME280;44826;51.596;5.624;2023-02-28T07:43:46;103087.09;;;0.12;72.45
59043;BME280;44826;51.596;5.624;2023-02-28T07:46:13;103096.94;;;0.21;71.74
59043;BME280;44826;51.596;5.624;2023-02-28T07:48:43;103095.59;;;0.27;70.51
59043;BME280;44826;51.596;5.624;2023-02-28T07:51:08;103099.28;;;0.33;70.51
59043;BME280;44826;51.596;5.624;2023-02-28T07:53:34;103099.53;;;0.37;70.77
59043;BME280;44826;51.596;5.624;2023-02-28T07:56:01;103101.53;;;0.43;68.99
59043;BME280;44826;51.596;5.624;2023-02-28T07:58:28;103095.78;;;0.47;68.80
59043;BME280;44826;51.596;5.624;2023-02-28T08:00:54;103096.13;;;0.53;69.72
59043;BME280;44826;51.596;5.624;2023-02-28T08:03:21;103098.03;;;0.57;69.44
59043;BME280;44826;51.596;5.624;2023-02-28T08:05:47;103099.88;;;0.60;67.61
59043;BME280;44826;51.596;5.624;2023-02-28T08:08:13;103100.66;;;0.59;67.16
59043;BME280;44826;51.596;5.624;2023-02-28T08:10:39;103103.22;;;0.59;67.22
59043;BME280;44826;51.596;5.624;2023-02-28T08:13:04;103103.88;;;0.55;66.46
59043;BME280;44826;51.596;5.624;2023-02-28T08:15:30;103099.53;;;0.54;67.03
59043;BME280;44826;51.596;5.624;2023-02-28T08:17:55;103109.78;;;0.54;67.20
59043;BME280;44826;51.596;5.624;2023-02-28T08:20:24;103106.25;;;0.52;67.35
59043;BME280;44826;51.596;5.624;2023-02-28T08:22:49;103098.44;;;0.49;66.04
59043;BME280;44826;51.596;5.624;2023-02-28T08:25:15;103101.69;;;0.46;66.13
59043;BME280;44826;51.596;5.624;2023-02-28T08:27:40;103100.84;;;0.45;66.05
59043;BME280;44826;51.596;5.624;2023-02-28T08:30:06;103100.03;;;0.47;65.63
59043;BME280;44826;51.596;5.624;2023-02-28T08:32:33;103098.28;;;0.45;65.87
59043;BME280;44826;51.596;5.624;2023-02-28T08:34:59;103102.59;;;0.47;65.13
59043;BME280;44826;51.596;5.624;2023-02-28T08:37:24;103093.16;;;0.45;64.94
59043;BME280;44826;51.596;5.624;2023-02-28T08:39:49;103098.34;;;0.47;64.54
59043;BME280;44826;51.596;5.624;2023-02-28T08:42:15;103100.03;;;0.47;63.47
59043;BME280;44826;51.596;5.624;2023-02-28T08:44:40;103091.63;;;0.49;62.46
59043;BME280;44826;51.596;5.624;2023-02-28T08:47:05;103089.97;;;0.50;61.88
59043;BME280;44826;51.596;5.624;2023-02-28T08:49:31;103094.28;;;0.51;61.58
59043;BME280;44826;51.596;5.624;2023-02-28T08:51:56;103097.88;;;0.54;61.16
59043;BME280;44826;51.596;5.624;2023-02-28T08:54:22;103091.06;;;0.55;59.96
59043;BME280;44826;51.596;5.624;2023-02-28T08:56:48;103092.81;;;0.56;59.99
59043;BME280;44826;51.596;5.624;2023-02-28T08:59:13;103098.09;;;0.59;60.97
59043;BME280;44826;51.596;5.624;2023-02-28T09:01:39;103098.28;;;0.62;61.73
59043;BME280;44826;51.596;5.624;2023-02-28T09:04:06;103098.44;;;0.65;62.30
59043;BME280;44826;51.596;5.624;2023-02-28T09:06:33;103098.50;;;0.67;59.68
59043;BME280;44826;51.596;5.624;2023-02-28T09:08:59;103102.91;;;0.69;58.79
59043;BME280;44826;51.596;5.624;2023-02-28T09:11:26;103098.72;;;0.71;59.98
59043;BME280;44826;51.596;5.624;2023-02-28T09:13:52;103104.91;;;0.75;59.91
59043;BME280;44826;51.596;5.624;2023-02-28T09:16:17;103103.38;;;0.79;60.80
59043;BME280;44826;51.596;5.624;2023-02-28T09:18:43;103099.13;;;0.79;59.06
59043;BME280;44826;51.596;5.624;2023-02-28T09:21:11;103096.66;;;0.81;59.65
59043;BME280;44826;51.596;5.624;2023-02-28T09:23:40;103097.75;;;0.86;60.18
59043;BME280;44826;51.596;5.624;2023-02-28T09:26:06;103096.88;;;0.85;58.92
59043;BME280;44826;51.596;5.624;2023-02-28T09:28:32;103099.63;;;0.88;58.53
59043;BME280;44826;51.596;5.624;2023-02-28T09:30:57;103098.81;;;0.89;58.62
59043;BME280;44826;51.596;5.624;2023-02-28T09:33:24;103102.41;;;0.93;58.24
59043;BME280;44826;51.596;5.624;2023-02-28T09:35:51;103101.66;;;0.96;58.39
59043;BME280;44826;51.596;5.624;2023-02-28T09:38:22;103092.53;;;1.01;61.54
59043;BME280;44826;51.596;5.624;2023-02-28T09:40:51;103095.19;;;1.02;57.98
59043;BME280;44826;51.596;5.624;2023-02-28T09:43:17;103107.19;;;1.03;56.20
59043;BME280;44826;51.596;5.624;2023-02-28T09:45:52;103096.22;;;1.06;58.35
59043;BME280;44826;51.596;5.624;2023-02-28T09:48:27;103098.84;;;1.08;56.32
59043;BME280;44826;51.596;5.624;2023-02-28T09:51:09;103090.53;;;1.12;57.46
59043;BME280;44826;51.596;5.624;2023-02-28T09:53:38;103087.31;;;1.16;56.98
59043;BME280;44826;51.596;5.624;2023-02-28T09:56:08;103093.41;;;1.18;56.39
59043;BME280;44826;51.596;5.624;2023-02-28T09:58:44;103087.59;;;1.22;58.30
59043;BME280;44826;51.596;5.624;2023-02-28T10:04:10;103087.16;;;1.31;57.38
59043;BME280;44826;51.596;5.624;2023-02-28T10:06:49;103085.66;;;1.34;55.72
59043;BME280;44826;51.596;5.624;2023-02-28T10:09:27;103074.66;;;1.37;56.03
59043;BME280;44826;51.596;5.624;2023-02-28T10:12:00;103084.31;;;1.43;54.27
59043;BME280;44826;51.596;5.624;2023-02-28T10:14:29;103082.72;;;1.45;52.27
59043;BME280;44826;51.596;5.624;2023-02-28T10:16:59;103084.53;;;1.47;52.91
59043;BME280;44826;51.596;5.624;2023-02-28T10:19:35;103079.66;;;1.52;53.56
59043;BME280;44826;51.596;5.624;2023-02-28T10:22:19;103069.59;;;1.57;56.20
59043;BME280;44826;51.596;5.624;2023-02-28T10:24:49;103079.13;;;1.59;52.33
59043;BME280;44826;51.596;5.624;2023-02-28T10:27:29;103070.78;;;1.63;54.03
59043;BME280;44826;51.596;5.624;2023-02-28T10:29:57;103074.31;;;1.65;53.02
59043;BME280;44826;51.596;5.624;2023-02-28T10:32:25;103076.22;;;1.70;51.47
59043;BME280;44826;51.596;5.624;2023-02-28T10:34:59;103074.66;;;1.73;51.89
59043;BME280;44826;51.596;5.624;2023-02-28T10:37:25;103078.25;;;1.77;50.67
59043;BME280;44826;51.596;5.624;2023-02-28T10:39:52;103069.72;;;1.78;51.23
59043;BME280;44826;51.596;5.624;2023-02-28T10:42:25;103075.00;;;1.81;52.18
59043;BME280;44826;51.596;5.624;2023-02-28T10:45:12;103064.91;;;1.84;52.89
59043;BME280;44826;51.596;5.624;2023-02-28T10:47:58;103067.63;;;1.87;51.96
59043;BME280;44826;51.596;5.624;2023-02-28T10:50:43;103066.91;;;1.91;51.54
59043;BME280;44826;51.596;5.624;2023-02-28T10:53:28;103056.06;;;1.97;53.98
59043;BME280;44826;51.596;5.624;2023-02-28T11:01:47;103058.84;;;2.02;50.24
59043;BME280;44826;51.596;5.624;2023-02-28T11:04:19;103064.00;;;2.02;49.38
59043;BME280;44826;51.596;5.624;2023-02-28T11:06:45;103056.34;;;2.03;51.06
59043;BME280;44826;51.596;5.624;2023-02-28T11:09:27;103054.72;;;2.05;51.26
59043;BME280;44826;51.596;5.624;2023-02-28T11:11:56;103057.34;;;2.07;48.50
59043;BME280;44826;51.596;5.624;2023-02-28T11:14:25;103046.41;;;2.11;50.12
59043;BME280;44826;51.596;5.624;2023-02-28T11:16:52;103040.63;;;2.15;50.32
59043;BME280;44826;51.596;5.624;2023-02-28T11:19:40;103033.13;;;2.20;52.11
59043;BME280;44826;51.596;5.624;2023-02-28T11:22:09;103040.22;;;2.25;49.61
59043;BME280;44826;51.596;5.624;2023-02-28T11:24:44;103042.09;;;2.30;50.57
59043;BME280;44826;51.596;5.624;2023-02-28T11:27:46;103037.25;;;2.36;52.47
59043;BME280;44826;51.596;5.624;2023-02-28T11:32:52;103031.56;;;2.43;48.81
59043;BME280;44826;51.596;5.624;2023-02-28T11:35:23;103031.69;;;2.46;50.45
59043;BME280;44826;51.596;5.624;2023-02-28T11:37:50;103030.25;;;2.53;48.93
59043;BME280;44826;51.596;5.624;2023-02-28T11:40:22;103020.13;;;2.56;49.81
59043;BME280;44826;51.596;5.624;2023-02-28T11:43:05;103025.63;;;2.65;49.32
59043;BME280;44826;51.596;5.624;2023-02-28T11:54:16;103021.59;;;2.92;51.07
59043;BME280;44826;51.596;5.624;2023-02-28T11:57:00;103016.44;;;2.92;49.04
59043;BME280;44826;51.596;5.624;2023-02-28T11:59:36;103011.53;;;2.96;52.32
59043;BME280;44826;51.596;5.624;2023-02-28T12:02:25;103004.94;;;3.03;49.13
59043;BME280;44826;51.596;5.624;2023-02-28T12:07:47;103008.94;;;3.17;48.78
59043;BME280;44826;51.596;5.624;2023-02-28T12:10:29;103006.03;;;3.31;49.26
59043;BME280;44826;51.596;5.624;2023-02-28T12:13:07;103006.28;;;3.37;47.06
59043;BME280;44826;51.596;5.624;2023-02-28T12:24:18;103000.53;;;3.67;48.79
59043;BME280;44826;51.596;5.624;2023-02-28T12:26:50;102993.06;;;3.73;46.05
59043;BME280;44826;51.596;5.624;2023-02-28T12:29:21;102979.41;;;3.76;45.86
59043;BME280;44826;51.596;5.624;2023-02-28T12:32:17;102982.41;;;3.87;50.31
59043;BME280;44826;51.596;5.624;2023-02-28T12:37:18;102977.81;;;4.02;45.34
59043;BME280;44826;51.596;5.624;2023-02-28T12:39:51;102984.81;;;4.06;46.04
59043;BME280;44826;51.596;5.624;2023-02-28T12:42:27;102977.38;;;4.14;49.91
59043;BME280;44826;51.596;5.624;2023-02-28T12:44:59;102966.50;;;4.23;47.52
59043;BME280;44826;51.596;5.624;2023-02-28T12:47:26;102966.91;;;4.34;46.21
59043;BME280;44826;51.596;5.624;2023-02-28T12:50:05;102963.66;;;4.39;47.03
59043;BME280;44826;51.596;5.624;2023-02-28T12:55:16;102956.47;;;4.56;48.52
59043;BME280;44826;51.596;5.624;2023-02-28T12:58:03;102950.22;;;4.76;48.14
59043;BME280;44826;51.596;5.624;2023-02-28T13:00:35;102955.06;;;4.92;45.16
59043;BME280;44826;51.596;5.624;2023-02-28T13:09:17;102945.69;;;5.23;45.16
59043;BME280;44826;51.596;5.624;2023-02-28T13:11:47;102930.25;;;5.25;43.68
59043;BME280;44826;51.596;5.624;2023-02-28T13:14:29;102938.16;;;5.29;44.84
59043;BME280;44826;51.596;5.624;2023-02-28T13:19:43;102925.41;;;5.36;43.27
59043;BME280;44826;51.596;5.624;2023-02-28T13:22:38;102926.31;;;5.36;43.54
59043;BME280;44826;51.596;5.624;2023-02-28T13:27:51;102925.91;;;5.53;44.63
59043;BME280;44826;51.596;5.624;2023-02-28T13:33:34;102917.81;;;6.01;44.00
59043;BME280;44826;51.596;5.624;2023-02-28T13:36:09;102919.22;;;6.22;44.55
59043;BME280;44826;51.596;5.624;2023-02-28T13:38:41;102914.63;;;6.45;43.13
59043;BME280;44826;51.596;5.624;2023-02-28T13:57:41;102908.53;;;8.05;42.52
59043;BME280;44826;51.596;5.624;2023-02-28T14:00:31;102905.16;;;8.08;43.39
59043;BME280;44826;51.596;5.624;2023-02-28T14:03:31;102902.31;;;7.96;43.43
59043;BME280;44826;51.596;5.624;2023-02-28T14:06:14;102905.66;;;7.88;40.94
59043;BME280;44826;51.596;5.624;2023-02-28T14:11:39;102910.78;;;7.41;39.30
59043;BME280;44826;51.596;5.624;2023-02-28T14:14:07;102907.56;;;7.13;38.46
59043;BME280;44826;51.596;5.624;2023-02-28T14:16:39;102909.66;;;6.90;40.01
59043;BME280;44826;51.596;5.624;2023-02-28T14:19:25;102910.94;;;6.71;40.38
59043;BME280;44826;51.596;5.624;2023-02-28T14:33:22;102888.22;;;6.23;42.56
59043;BME280;44826;51.596;5.624;2023-02-28T14:36:12;102895.78;;;6.14;42.84
59043;BME280;44826;51.596;5.624;2023-02-28T14:41:12;102898.19;;;6.08;41.88
59043;BME280;44826;51.596;5.624;2023-02-28T14:43:48;102896.47;;;6.08;42.68
59043;BME280;44826;51.596;5.624;2023-02-28T14:46:14;102889.50;;;6.06;40.75
59043;BME280;44826;51.596;5.624;2023-02-28T14:48:45;102895.50;;;6.05;42.12
59043;BME280;44826;51.596;5.624;2023-02-28T14:51:10;102893.72;;;6.02;40.87
59043;BME280;44826;51.596;5.624;2023-02-28T14:53:37;102891.19;;;6.04;42.01
59043;BME280;44826;51.596;5.624;2023-02-28T14:56:02;102886.84;;;6.03;41.38
59043;BME280;44826;51.596;5.624;2023-02-28T14:58:30;102889.34;;;6.00;40.18
59043;BME280;44826;51.596;5.624;2023-02-28T15:00:58;102892.00;;;6.03;42.34